Terminal Aerodrome Forecast
Issued by NWS Mt. Holly, NJ

Home | Current Version | Previous Version | Text Only | Print | Product List | Glossary On
Versions: 1 2 3 4 5 6 7 8 9 10 11 12 13 14 15
000
FTUS41 KPHI 261739
TAFABE
TAF
KABE 261739Z 2618/2718 05008KT P6SM BKN025
     FM262000 02005KT P6SM BKN035
     FM270700 00000KT P6SM BKN010
     FM271000 VRB03KT 2SM BR OVC006
     FM271400 10003KT P6SM BKN025
     FM271600 13003KT P6SM BKN035=

USA.gov is the U.S. government's official web portal to all federal, state and local government web resources and services.